RYR87B EGSS-EPMO
Flight info
| Callsign | RYR87B |
|---|---|
| Flight time | N/A |
| Altitude | 37000 |
| Route | CLN P44 RATLO M197 REDFA L620 TACHA DCT RKN L980 HLZ DCT SUBIX DCT OBOKU DCT DOSIX |
| Aircraft | B738/M-SDE2E3FGHIRWXY/LB1 |
Departure
| Time | 2026-05-04 21:09 |
|---|---|
| Airport | London Stansted Airport (EGSS) |
Arrival
| Time | N/A |
|---|---|
| Airport | Warsaw Modlin Airport (EPMO) |
| Time | Latitude | Longitude | Altitude | Speed | Heading |
|---|---|---|---|---|---|
| 2026-05-04 20:20 | 51.89263 | 0.25911 | 352 ft | 0 kts | 43° |
| 2026-05-04 20:53 | 51.89256 | 0.25900 | 352 ft | 2 kts | 39° |
| 2026-05-04 20:53 | 51.89242 | 0.25885 | 352 ft | 2 kts | 28° |
| 2026-05-04 20:54 | 51.89227 | 0.25877 | 353 ft | 2 kts | 358° |
| 2026-05-04 20:54 | 51.89212 | 0.25886 | 354 ft | 2 kts | 317° |
| 2026-05-04 20:54 | 51.89208 | 0.25892 | 356 ft | 0 kts | 313° |
| 2026-05-04 20:59 | 51.89225 | 0.25861 | 349 ft | 11 kts | 312° |
| 2026-05-04 21:00 | 51.89282 | 0.25762 | 345 ft | 12 kts | 313° |
| 2026-05-04 21:00 | 51.89353 | 0.25638 | 343 ft | 18 kts | 310° |
| 2026-05-04 21:00 | 51.89314 | 0.25484 | 343 ft | 17 kts | 219° |
| 2026-05-04 21:00 | 51.89201 | 0.25316 | 348 ft | 25 kts | 223° |
| 2026-05-04 21:01 | 51.89068 | 0.25115 | 342 ft | 26 kts | 223° |
| 2026-05-04 21:01 | 51.88938 | 0.24920 | 342 ft | 28 kts | 222° |
| 2026-05-04 21:01 | 51.88794 | 0.24703 | 346 ft | 26 kts | 223° |
| 2026-05-04 21:01 | 51.88666 | 0.24512 | 347 ft | 24 kts | 223° |
| 2026-05-04 21:02 | 51.88548 | 0.24335 | 342 ft | 23 kts | 223° |
| 2026-05-04 21:02 | 51.88413 | 0.24132 | 339 ft | 29 kts | 223° |
| 2026-05-04 21:02 | 51.88269 | 0.23917 | 336 ft | 27 kts | 223° |
| 2026-05-04 21:02 | 51.88135 | 0.23716 | 334 ft | 25 kts | 223° |
| 2026-05-04 21:03 | 51.88006 | 0.23522 | 336 ft | 26 kts | 223° |
| 2026-05-04 21:03 | 51.87879 | 0.23333 | 334 ft | 24 kts | 223° |
| 2026-05-04 21:03 | 51.87761 | 0.23155 | 332 ft | 23 kts | 222° |
| 2026-05-04 21:03 | 51.87759 | 0.22982 | 336 ft | 17 kts | 312° |
| 2026-05-04 21:04 | 51.87841 | 0.22844 | 336 ft | 17 kts | 313° |
| 2026-05-04 21:04 | 51.87870 | 0.22794 | 336 ft | 0 kts | 313° |
| 2026-05-04 21:07 | 51.87881 | 0.22774 | 336 ft | 7 kts | 313° |
| 2026-05-04 21:07 | 51.87918 | 0.22710 | 334 ft | 8 kts | 315° |
| 2026-05-04 21:08 | 51.87969 | 0.22688 | 335 ft | 8 kts | 17° |
| 2026-05-04 21:08 | 51.87983 | 0.22703 | 331 ft | 0 kts | 40° |
| 2026-05-04 21:08 | 51.87995 | 0.22720 | 330 ft | 17 kts | 42° |
| 2026-05-04 21:08 | 51.88281 | 0.23149 | 334 ft | 94 kts | 43° |
| 2026-05-04 21:09 | 51.89206 | 0.24496 | 357 ft | 169 kts | 39° |
| 2026-05-04 21:09 | 51.90128 | 0.25849 | 837 ft | 189 kts | 42° |
| 2026-05-04 21:09 | 51.90753 | 0.26843 | 1519 ft | 182 kts | 46° |
| 2026-05-04 21:09 | 51.91487 | 0.28483 | 2421 ft | 189 kts | 63° |
| 2026-05-04 21:10 | 51.91890 | 0.30721 | 2606 ft | 222 kts | 88° |
| 2026-05-04 21:10 | 51.91465 | 0.33209 | 3111 ft | 238 kts | 116° |
| 2026-05-04 21:10 | 51.90618 | 0.35628 | 3557 ft | 258 kts | 117° |
| 2026-05-04 21:10 | 51.89775 | 0.38241 | 3980 ft | 266 kts | 116° |
| 2026-05-04 21:11 | 51.88933 | 0.40967 | 3991 ft | 271 kts | 116° |
| 2026-05-04 21:11 | 51.88111 | 0.43689 | 4137 ft | 263 kts | 115° |
| 2026-05-04 21:11 | 51.87309 | 0.46392 | 4572 ft | 269 kts | 115° |
| 2026-05-04 21:11 | 51.86494 | 0.49160 | 4973 ft | 277 kts | 115° |
| 2026-05-04 21:12 | 51.85662 | 0.51988 | 5353 ft | 278 kts | 114° |
| 2026-05-04 21:12 | 51.84832 | 0.54812 | 5729 ft | 278 kts | 115° |
| 2026-05-04 21:12 | 51.84001 | 0.57637 | 6018 ft | 278 kts | 115° |
| 2026-05-04 21:12 | 51.83275 | 0.60558 | 5991 ft | 281 kts | 103° |
| 2026-05-04 21:13 | 51.82969 | 0.63632 | 6016 ft | 280 kts | 92° |
| 2026-05-04 21:13 | 51.83005 | 0.66780 | 6002 ft | 279 kts | 85° |
| 2026-05-04 21:13 | 51.83142 | 0.69908 | 5998 ft | 279 kts | 84° |
| 2026-05-04 21:13 | 51.83285 | 0.73038 | 6008 ft | 279 kts | 84° |
| 2026-05-04 21:14 | 51.83417 | 0.76179 | 5996 ft | 280 kts | 85° |
| 2026-05-04 21:14 | 51.83541 | 0.79313 | 5992 ft | 279 kts | 85° |
| 2026-05-04 21:14 | 51.83659 | 0.82447 | 5982 ft | 279 kts | 85° |
| 2026-05-04 21:14 | 51.83775 | 0.85611 | 6200 ft | 284 kts | 85° |
| 2026-05-04 21:15 | 51.83889 | 0.88768 | 7061 ft | 284 kts | 85° |
| 2026-05-04 21:15 | 51.84004 | 0.91974 | 7984 ft | 286 kts | 86° |
| 2026-05-04 21:15 | 51.84120 | 0.95246 | 8843 ft | 291 kts | 86° |
| 2026-05-04 21:15 | 51.84238 | 0.98563 | 9603 ft | 299 kts | 86° |
| 2026-05-04 21:16 | 51.84355 | 1.01904 | 10363 ft | 304 kts | 86° |
| 2026-05-04 21:16 | 51.84479 | 1.05432 | 10698 ft | 327 kts | 86° |
| 2026-05-04 21:16 | 51.84611 | 1.09257 | 10927 ft | 351 kts | 86° |
| 2026-05-04 21:16 | 51.84754 | 1.13285 | 11449 ft | 363 kts | 85° |
| 2026-05-04 21:17 | 51.85332 | 1.17248 | 12288 ft | 363 kts | 66° |
| 2026-05-04 21:17 | 51.86371 | 1.20998 | 13130 ft | 367 kts | 65° |
| 2026-05-04 21:17 | 51.87416 | 1.24724 | 13915 ft | 370 kts | 65° |
| 2026-05-04 21:17 | 51.88482 | 1.28560 | 14585 ft | 376 kts | 66° |
| 2026-05-04 21:18 | 51.89550 | 1.32453 | 15264 ft | 380 kts | 66° |
| 2026-05-04 21:18 | 51.90621 | 1.36401 | 15897 ft | 387 kts | 66° |
| 2026-05-04 21:18 | 51.91702 | 1.40417 | 16571 ft | 390 kts | 67° |
| 2026-05-04 21:18 | 51.92786 | 1.44462 | 17310 ft | 393 kts | 67° |
| 2026-05-04 21:19 | 51.93882 | 1.48563 | 17903 ft | 399 kts | 67° |
| 2026-05-04 21:19 | 51.94992 | 1.52728 | 18517 ft | 405 kts | 67° |
| 2026-05-04 21:19 | 51.96097 | 1.56880 | 19093 ft | 407 kts | 67° |
| 2026-05-04 21:19 | 51.97230 | 1.61139 | 19870 ft | 405 kts | 67° |
| 2026-05-04 21:20 | 51.98348 | 1.65353 | 20440 ft | 410 kts | 67° |
| 2026-05-04 21:20 | 51.99399 | 1.69625 | 20981 ft | 413 kts | 72° |
| 2026-05-04 21:20 | 52.00185 | 1.74133 | 21504 ft | 418 kts | 76° |
| 2026-05-04 21:20 | 52.00887 | 1.78751 | 21969 ft | 423 kts | 77° |
| 2026-05-04 21:21 | 52.01572 | 1.83430 | 22459 ft | 428 kts | 77° |
| 2026-05-04 21:21 | 52.02271 | 1.88171 | 22961 ft | 432 kts | 77° |
| 2026-05-04 21:21 | 52.02982 | 1.92910 | 23631 ft | 432 kts | 77° |
| 2026-05-04 21:21 | 52.03700 | 1.97627 | 23971 ft | 438 kts | 76° |
| 2026-05-04 21:22 | 52.04444 | 2.02472 | 24295 ft | 444 kts | 76° |
| 2026-05-04 21:22 | 52.05198 | 2.07366 | 24759 ft | 445 kts | 76° |
| 2026-05-04 21:22 | 52.05950 | 2.12244 | 25240 ft | 447 kts | 76° |
| 2026-05-04 21:22 | 52.06696 | 2.17103 | 25634 ft | 450 kts | 76° |
| 2026-05-04 21:23 | 52.07455 | 2.22063 | 26013 ft | 453 kts | 76° |
| 2026-05-04 21:23 | 52.08214 | 2.27048 | 26451 ft | 455 kts | 77° |
| 2026-05-04 21:23 | 52.08975 | 2.32056 | 26871 ft | 457 kts | 77° |
| 2026-05-04 21:23 | 52.09737 | 2.37092 | 27261 ft | 460 kts | 77° |
| 2026-05-04 21:24 | 52.10503 | 2.42156 | 27621 ft | 462 kts | 77° |
| 2026-05-04 21:24 | 52.11269 | 2.47249 | 27977 ft | 465 kts | 77° |
| 2026-05-04 21:24 | 52.12099 | 2.52347 | 28383 ft | 467 kts | 75° |
| 2026-05-04 21:24 | 52.13041 | 2.57428 | 28722 ft | 470 kts | 73° |
| 2026-05-04 21:25 | 52.14032 | 2.62520 | 29047 ft | 472 kts | 73° |
| 2026-05-04 21:25 | 52.15034 | 2.67628 | 29377 ft | 475 kts | 73° |
| 2026-05-04 21:25 | 52.16034 | 2.72780 | 29718 ft | 477 kts | 74° |
| 2026-05-04 21:25 | 52.17011 | 2.77880 | 30041 ft | 479 kts | 74° |
| 2026-05-04 21:26 | 52.18004 | 2.83137 | 30405 ft | 478 kts | 74° |
| 2026-05-04 21:26 | 52.18961 | 2.88237 | 30820 ft | 476 kts | 74° |
| 2026-05-04 21:26 | 52.19924 | 2.93403 | 31241 ft | 474 kts | 74° |
| 2026-05-04 21:26 | 52.20879 | 2.98538 | 31605 ft | 473 kts | 75° |
| 2026-05-04 21:27 | 52.21835 | 3.03691 | 31977 ft | 472 kts | 75° |
| 2026-05-04 21:27 | 52.22785 | 3.08819 | 32298 ft | 473 kts | 75° |
| 2026-05-04 21:27 | 52.23737 | 3.13963 | 32600 ft | 473 kts | 75° |
| 2026-05-04 21:27 | 52.24682 | 3.19095 | 32921 ft | 473 kts | 75° |
| 2026-05-04 21:28 | 52.25408 | 3.24339 | 33106 ft | 474 kts | 84° |
| 2026-05-04 21:28 | 52.25618 | 3.29699 | 33394 ft | 471 kts | 94° |
| 2026-05-04 21:28 | 52.25503 | 3.34961 | 33783 ft | 468 kts | 94° |
| 2026-05-04 21:28 | 52.25355 | 3.40258 | 34093 ft | 467 kts | 95° |
| 2026-05-04 21:29 | 52.25202 | 3.45572 | 34291 ft | 468 kts | 95° |
| 2026-05-04 21:29 | 52.25055 | 3.50888 | 34463 ft | 470 kts | 94° |
| 2026-05-04 21:29 | 52.24916 | 3.56241 | 34675 ft | 470 kts | 94° |
| 2026-05-04 21:29 | 52.24785 | 3.61564 | 34930 ft | 469 kts | 94° |
| 2026-05-04 21:30 | 52.24657 | 3.66883 | 35165 ft | 469 kts | 94° |
| 2026-05-04 21:30 | 52.24530 | 3.72212 | 35356 ft | 470 kts | 94° |
| 2026-05-04 21:30 | 52.24402 | 3.77552 | 35549 ft | 470 kts | 94° |
| 2026-05-04 21:30 | 52.24272 | 3.82885 | 35768 ft | 470 kts | 94° |
| 2026-05-04 21:31 | 52.24003 | 3.93535 | 36185 ft | 470 kts | 94° |
| 2026-05-04 21:31 | 52.23867 | 3.98790 | 36406 ft | 468 kts | 94° |
| 2026-05-04 21:31 | 52.23727 | 4.04090 | 36645 ft | 467 kts | 94° |
| 2026-05-04 21:32 | 52.23584 | 4.09402 | 36795 ft | 468 kts | 94° |
| 2026-05-04 21:32 | 52.23438 | 4.14725 | 36912 ft | 469 kts | 94° |
| 2026-05-04 21:32 | 52.23289 | 4.20055 | 36999 ft | 471 kts | 94° |
| 2026-05-04 21:33 | 52.22984 | 4.30754 | 36993 ft | 470 kts | 94° |
| 2026-05-04 21:33 | 52.22674 | 4.41306 | 36985 ft | 467 kts | 95° |
| 2026-05-04 21:34 | 52.22355 | 4.51849 | 36986 ft | 464 kts | 95° |
| 2026-05-04 21:34 | 52.22027 | 4.62326 | 36987 ft | 462 kts | 95° |
| 2026-05-04 21:35 | 52.21691 | 4.72805 | 37029 ft | 462 kts | 95° |
| 2026-05-04 21:35 | 52.21344 | 4.83279 | 37030 ft | 463 kts | 95° |
| 2026-05-04 21:36 | 52.20988 | 4.93794 | 37012 ft | 466 kts | 95° |
| 2026-05-04 21:36 | 52.20623 | 5.04293 | 37010 ft | 468 kts | 95° |
| 2026-05-04 21:37 | 52.20244 | 5.14913 | 37005 ft | 470 kts | 95° |
| 2026-05-04 21:37 | 52.19853 | 5.25581 | 36997 ft | 472 kts | 95° |
| 2026-05-04 21:38 | 52.19453 | 5.36251 | 36997 ft | 474 kts | 95° |
| 2026-05-04 21:38 | 52.19040 | 5.47002 | 36985 ft | 474 kts | 96° |
| 2026-05-04 21:39 | 52.18621 | 5.57675 | 36999 ft | 474 kts | 96° |
| 2026-05-04 21:39 | 52.18190 | 5.68388 | 36971 ft | 473 kts | 96° |
| 2026-05-04 21:40 | 52.17751 | 5.79079 | 36969 ft | 472 kts | 96° |
| 2026-05-04 21:40 | 52.17302 | 5.89743 | 36968 ft | 471 kts | 96° |
| 2026-05-04 21:41 | 52.16845 | 6.00377 | 36966 ft | 470 kts | 97° |
| 2026-05-04 21:41 | 52.16379 | 6.11002 | 36972 ft | 469 kts | 97° |
| 2026-05-04 21:42 | 52.15905 | 6.21594 | 36977 ft | 468 kts | 97° |
| 2026-05-04 21:42 | 52.15424 | 6.32127 | 36978 ft | 468 kts | 97° |
| 2026-05-04 21:43 | 52.14931 | 6.42711 | 36971 ft | 468 kts | 97° |
| 2026-05-04 21:43 | 52.14431 | 6.53250 | 36985 ft | 469 kts | 97° |
| 2026-05-04 21:44 | 52.13919 | 6.63851 | 36984 ft | 470 kts | 97° |
| 2026-05-04 21:44 | 52.13398 | 6.74479 | 36977 ft | 471 kts | 97° |
| 2026-05-04 21:45 | 52.13601 | 6.85180 | 37002 ft | 475 kts | 87° |
| 2026-05-04 21:45 | 52.14222 | 6.95860 | 36973 ft | 476 kts | 88° |
| 2026-05-04 21:46 | 52.14782 | 7.06631 | 36973 ft | 478 kts | 88° |
| 2026-05-04 21:46 | 52.15316 | 7.17426 | 36977 ft | 479 kts | 88° |
| 2026-05-04 21:47 | 52.15849 | 7.28254 | 36975 ft | 480 kts | 88° |
| 2026-05-04 21:47 | 52.16376 | 7.39098 | 36974 ft | 480 kts | 88° |
| 2026-05-04 21:48 | 52.16892 | 7.49958 | 36988 ft | 480 kts | 88° |
| 2026-05-04 21:48 | 52.17396 | 7.60753 | 36970 ft | 480 kts | 88° |
| 2026-05-04 21:49 | 52.17874 | 7.71629 | 36967 ft | 480 kts | 89° |
| 2026-05-04 21:49 | 52.18243 | 7.82508 | 36971 ft | 480 kts | 89° |
| 2026-05-04 21:50 | 52.18669 | 7.93293 | 36957 ft | 480 kts | 89° |
| 2026-05-04 21:50 | 52.19099 | 8.04140 | 36971 ft | 479 kts | 89° |
| 2026-05-04 21:51 | 52.19507 | 8.14987 | 36975 ft | 478 kts | 89° |
| 2026-05-04 21:51 | 52.19902 | 8.25822 | 36982 ft | 478 kts | 89° |
| 2026-05-04 21:52 | 52.20295 | 8.36585 | 36971 ft | 478 kts | 89° |
| 2026-05-04 21:52 | 52.20692 | 8.47407 | 36973 ft | 478 kts | 89° |
| 2026-05-04 21:53 | 52.21086 | 8.58254 | 36968 ft | 479 kts | 89° |
| 2026-05-04 21:53 | 52.21472 | 8.69111 | 36971 ft | 480 kts | 89° |
| 2026-05-04 21:54 | 52.21848 | 8.79963 | 36967 ft | 481 kts | 89° |
| 2026-05-04 21:54 | 52.22216 | 8.90878 | 36957 ft | 482 kts | 89° |
| 2026-05-04 21:55 | 52.22576 | 9.01807 | 36966 ft | 483 kts | 89° |
| 2026-05-04 21:55 | 52.22875 | 9.10919 | 36965 ft | 483 kts | 89° |
| 2026-05-04 21:56 | 52.23295 | 9.23673 | 36965 ft | 484 kts | 89° |
| 2026-05-04 21:56 | 52.23582 | 9.32871 | 36966 ft | 484 kts | 89° |
| 2026-05-04 21:57 | 52.23901 | 9.43850 | 36976 ft | 484 kts | 89° |
| 2026-05-04 21:57 | 52.24208 | 9.54773 | 36977 ft | 484 kts | 90° |
| 2026-05-04 21:58 | 52.24509 | 9.65764 | 36972 ft | 484 kts | 90° |
| 2026-05-04 21:58 | 52.24802 | 9.76749 | 36973 ft | 483 kts | 90° |
| 2026-05-04 21:59 | 52.25099 | 9.87709 | 36980 ft | 483 kts | 88° |
| 2026-05-04 21:59 | 52.26212 | 9.98476 | 36989 ft | 483 kts | 79° |
| 2026-05-04 22:00 | 52.27663 | 10.09203 | 36985 ft | 483 kts | 79° |
| 2026-05-04 22:00 | 52.29063 | 10.19949 | 36987 ft | 483 kts | 79° |
| 2026-05-04 22:01 | 52.30393 | 10.30631 | 36995 ft | 482 kts | 80° |
| 2026-05-04 22:01 | 52.31708 | 10.41383 | 37010 ft | 482 kts | 80° |
| 2026-05-04 22:02 | 52.33019 | 10.52172 | 36990 ft | 482 kts | 80° |
| 2026-05-04 22:02 | 52.34318 | 10.62920 | 36992 ft | 482 kts | 80° |
| 2026-05-04 22:03 | 52.35602 | 10.73624 | 36993 ft | 482 kts | 80° |